createdAt,value
2019-03-17T00:01:12.199Z,91.90
2019-03-17T00:03:42.289Z,92.20
2019-03-17T00:06:13.214Z,92.20
2019-03-17T00:08:47.549Z,92.20
2019-03-17T00:11:17.364Z,92.20
2019-03-17T00:13:47.245Z,92.20
2019-03-17T00:16:18.609Z,92.20
2019-03-17T00:18:49.427Z,92.20
2019-03-17T00:21:19.309Z,92.10
2019-03-17T00:23:48.515Z,92.00
2019-03-17T00:26:19.769Z,92.00
2019-03-17T00:28:50.743Z,91.90
2019-03-17T00:31:24.163Z,91.80
2019-03-17T00:33:52.215Z,91.70
2019-03-17T00:36:22.034Z,91.30
2019-03-17T00:38:51.919Z,91.20
2019-03-17T00:41:23.089Z,91.20
2019-03-17T00:43:54.110Z,91.80
2019-03-17T00:46:23.279Z,92.10
2019-03-17T00:48:54.263Z,92.20
2019-03-17T00:51:26.623Z,92.10
2019-03-17T00:53:57.358Z,92.20
2019-03-17T00:56:46.515Z,92.20
2019-03-17T00:59:17.659Z,92.10
2019-03-17T01:01:47.830Z,92.20
2019-03-17T01:04:18.855Z,92.20
2019-03-17T01:06:48.739Z,92.20
2019-03-17T01:09:19.381Z,92.20
2019-03-17T01:11:49.151Z,92.20
2019-03-17T01:14:19.535Z,91.60
2019-03-17T01:16:50.689Z,91.40
2019-03-17T01:19:19.971Z,91.10
2019-03-17T01:21:52.140Z,89.70
2019-03-17T01:24:22.993Z,87.80
2019-03-17T01:26:55.219Z,86.60
2019-03-17T01:29:26.045Z,86.50
2019-03-17T01:31:56.923Z,86.20
2019-03-17T01:34:28.913Z,85.90
2019-03-17T01:36:58.809Z,86.00
2019-03-17T01:39:28.856Z,86.50
2019-03-17T01:42:01.821Z,86.50
2019-03-17T01:44:31.625Z,86.70
2019-03-17T01:47:02.652Z,87.60
2019-03-17T01:49:31.911Z,88.00
2019-03-17T01:52:01.913Z,87.60
2019-03-17T01:54:31.775Z,87.60
2019-03-17T01:57:02.710Z,87.80
2019-03-17T01:59:32.738Z,88.20
2019-03-17T02:02:03.945Z,88.60
2019-03-17T02:04:33.803Z,88.30
2019-03-17T02:07:04.958Z,88.20
2019-03-17T02:09:35.860Z,88.30
2019-03-17T02:12:07.415Z,88.40
2019-03-17T02:14:37.264Z,88.30
2019-03-17T02:17:08.228Z,88.20
2019-03-17T02:19:38.172Z,88.10
2019-03-17T02:22:08.419Z,88.30
2019-03-17T02:24:41.162Z,88.40
2019-03-17T02:27:10.933Z,88.40
2019-03-17T02:29:42.296Z,88.40
2019-03-17T02:32:12.380Z,88.40
2019-03-17T02:34:42.995Z,88.60
2019-03-17T02:37:15.152Z,88.60
2019-03-17T02:39:44.964Z,88.20
2019-03-17T02:42:15.809Z,88.30
2019-03-17T02:44:48.325Z,88.00
2019-03-17T02:47:19.318Z,88.20
2019-03-17T02:49:48.613Z,88.30
2019-03-17T02:52:19.892Z,88.70
2019-03-17T02:54:50.871Z,88.80
2019-03-17T02:57:23.141Z,88.70
2019-03-17T02:59:54.045Z,88.80
2019-03-17T03:02:24.879Z,88.70
2019-03-17T03:04:54.900Z,89.30
2019-03-17T03:07:26.032Z,89.30
2019-03-17T03:09:56.924Z,88.90
2019-03-17T03:12:28.035Z,88.70
2019-03-17T03:14:58.970Z,88.70
2019-03-17T03:17:28.912Z,89.10
2019-03-17T03:20:01.206Z,89.30
2019-03-17T03:22:32.118Z,89.40
2019-03-17T03:25:03.052Z,89.60
2019-03-17T03:27:35.098Z,89.80
2019-03-17T03:30:08.424Z,89.80
2019-03-17T03:32:38.352Z,90.00
2019-03-17T03:35:11.272Z,90.30
2019-03-17T03:37:42.514Z,90.30
2019-03-17T03:40:17.189Z,89.90
2019-03-17T03:42:48.162Z,90.30
2019-03-17T03:45:18.156Z,90.50
2019-03-17T03:47:47.439Z,90.50
2019-03-17T03:50:17.368Z,90.40
2019-03-17T03:52:50.374Z,90.70
2019-03-17T03:55:20.232Z,90.70
2019-03-17T03:57:52.523Z,90.70
2019-03-17T04:00:22.408Z,90.80
2019-03-17T04:02:55.609Z,90.90
2019-03-17T04:05:25.486Z,91.10
2019-03-17T04:07:56.573Z,91.40
2019-03-17T04:10:29.093Z,91.40
2019-03-17T04:13:00.012Z,91.50
2019-03-17T04:15:29.531Z,91.50
2019-03-17T04:18:02.033Z,91.50
2019-03-17T04:20:33.383Z,91.10
2019-03-17T04:23:03.296Z,90.90
2019-03-17T04:25:32.588Z,90.60
2019-03-17T04:28:03.370Z,90.50
2019-03-17T04:30:33.258Z,90.40
2019-03-17T04:33:02.930Z,90.30
2019-03-17T04:35:33.075Z,90.50
2019-03-17T04:38:02.955Z,90.60
2019-03-17T04:40:33.847Z,90.40
2019-03-17T04:43:04.780Z,90.50
2019-03-17T04:45:39.371Z,90.50
2019-03-17T04:48:09.239Z,90.50
2019-03-17T04:50:40.139Z,90.50
2019-03-17T04:53:12.299Z,90.70
2019-03-17T04:55:44.471Z,90.90
2019-03-17T04:58:14.380Z,90.80
2019-03-17T05:00:46.636Z,90.60
2019-03-17T05:03:16.339Z,90.80
2019-03-17T05:05:46.338Z,91.10
2019-03-17T05:08:16.054Z,91.40
2019-03-17T05:10:46.049Z,91.40
2019-03-17T05:13:15.984Z,91.50
2019-03-17T05:15:46.963Z,91.60
2019-03-17T05:18:18.303Z,91.80
2019-03-17T05:20:49.339Z,91.60
2019-03-17T05:23:19.177Z,91.70
2019-03-17T05:25:49.180Z,91.60
2019-03-17T05:28:23.156Z,91.70
2019-03-17T05:30:53.103Z,91.80
2019-03-17T05:33:23.023Z,91.80
2019-03-17T05:35:53.784Z,91.70
2019-03-17T05:38:24.623Z,91.60
2019-03-17T05:40:57.411Z,91.40
2019-03-17T05:43:27.403Z,91.30
2019-03-17T05:45:58.608Z,91.40
2019-03-17T05:48:29.538Z,91.20
2019-03-17T05:51:00.639Z,91.30
2019-03-17T05:53:30.505Z,91.30
2019-03-17T05:56:02.676Z,91.00
2019-03-17T05:58:33.795Z,90.80
2019-03-17T06:01:04.980Z,90.50
2019-03-17T06:03:37.163Z,90.20
2019-03-17T06:06:06.515Z,89.80
2019-03-17T06:08:37.399Z,89.50
2019-03-17T06:11:06.668Z,89.40
2019-03-17T06:13:36.652Z,88.80
2019-03-17T06:16:07.481Z,88.70
2019-03-17T06:18:38.254Z,87.70
2019-03-17T06:21:10.528Z,87.30
2019-03-17T06:23:40.525Z,86.80
2019-03-17T06:26:10.354Z,86.20
2019-03-17T06:28:41.268Z,85.90
2019-03-17T06:31:11.227Z,85.70
2019-03-17T06:33:42.106Z,85.10
2019-03-17T06:36:12.926Z,84.70
2019-03-17T06:38:44.200Z,84.20
2019-03-17T06:41:15.324Z,84.10
2019-03-17T06:43:44.582Z,84.10
2019-03-17T06:46:14.472Z,83.90
2019-03-17T06:48:45.661Z,84.00
2019-03-17T06:51:17.990Z,82.90
2019-03-17T06:53:56.423Z,82.40
2019-03-17T06:56:19.530Z,81.70
2019-03-17T06:58:49.474Z,81.10
2019-03-17T07:01:19.486Z,80.20
2019-03-17T07:03:49.149Z,79.10
2019-03-17T07:06:23.153Z,78.70
2019-03-17T07:08:56.283Z,78.40
2019-03-17T07:11:26.102Z,78.00
2019-03-17T07:13:56.941Z,77.30
2019-03-17T07:16:29.142Z,77.70
2019-03-17T07:19:00.912Z,77.40
2019-03-17T07:21:31.915Z,78.30
2019-03-17T07:24:04.145Z,78.70
2019-03-17T07:26:35.294Z,78.50
2019-03-17T07:29:05.083Z,78.30
2019-03-17T07:31:36.016Z,78.70
2019-03-17T07:34:08.807Z,79.00
2019-03-17T07:36:39.260Z,79.10
2019-03-17T07:39:12.095Z,79.00
2019-03-17T07:41:42.447Z,78.00
2019-03-17T07:44:13.291Z,77.90
2019-03-17T07:46:44.399Z,78.30
2019-03-17T07:49:16.825Z,77.10
2019-03-17T07:51:47.739Z,74.40
2019-03-17T07:54:18.817Z,72.00
2019-03-17T07:56:52.353Z,69.60
2019-03-17T07:59:22.243Z,68.10
2019-03-17T08:01:52.070Z,68.40
2019-03-17T08:04:26.207Z,67.80
2019-03-17T08:07:00.876Z,67.10
2019-03-17T08:09:31.735Z,67.60
2019-03-17T08:12:03.481Z,67.10
2019-03-17T08:14:34.635Z,65.70
2019-03-17T08:17:04.636Z,63.30
2019-03-17T08:19:34.511Z,62.30
2019-03-17T08:22:04.389Z,61.90
2019-03-17T08:24:34.384Z,61.60
2019-03-17T08:27:05.315Z,62.40
2019-03-17T08:29:35.177Z,62.40
2019-03-17T08:32:04.464Z,61.90
2019-03-17T08:34:35.354Z,59.60
2019-03-17T08:37:07.277Z,61.00
2019-03-17T08:39:39.699Z,60.20
2019-03-17T08:42:10.512Z,59.00
2019-03-17T08:44:41.490Z,58.90
2019-03-17T08:47:12.831Z,58.00
2019-03-17T08:49:43.844Z,56.10
2019-03-17T08:52:16.003Z,54.80
2019-03-17T08:54:47.037Z,52.80
2019-03-17T08:57:18.282Z,51.70
2019-03-17T08:59:49.331Z,51.40
2019-03-17T09:02:20.142Z,53.00
2019-03-17T09:04:51.046Z,54.40
2019-03-17T09:07:27.771Z,56.10
2019-03-17T09:09:56.995Z,57.40
2019-03-17T09:12:26.917Z,58.50
2019-03-17T09:15:01.369Z,59.30
2019-03-17T09:17:31.436Z,59.70
2019-03-17T09:20:03.644Z,58.10
2019-03-17T09:22:34.631Z,57.40
2019-03-17T09:25:05.396Z,57.40
2019-03-17T09:27:36.706Z,57.40
2019-03-17T09:30:09.166Z,57.30
2019-03-17T09:32:38.072Z,56.20
2019-03-17T09:35:11.267Z,56.80
2019-03-17T09:37:43.230Z,54.30
2019-03-17T09:40:16.524Z,54.00
2019-03-17T09:42:47.594Z,53.30
2019-03-17T09:45:17.378Z,53.20
2019-03-17T09:48:09.673Z,53.70
2019-03-17T09:50:39.138Z,54.40
2019-03-17T09:53:08.331Z,54.20
2019-03-17T09:55:39.330Z,49.20
2019-03-17T09:58:10.252Z,46.30
2019-03-17T10:00:41.539Z,45.90
2019-03-17T10:03:12.628Z,44.10
2019-03-17T10:05:44.755Z,45.10
2019-03-17T10:08:14.643Z,43.50
2019-03-17T10:10:45.670Z,43.20
2019-03-17T10:13:14.965Z,42.70
2019-03-17T10:15:46.044Z,42.90
2019-03-17T10:18:21.992Z,43.10
2019-03-17T10:20:56.308Z,42.70
2019-03-17T10:23:27.224Z,43.00
2019-03-17T10:25:58.127Z,42.20
2019-03-17T10:28:31.367Z,41.90
2019-03-17T10:31:04.719Z,41.60
2019-03-17T10:33:35.599Z,41.50
2019-03-17T10:36:05.695Z,40.60
2019-03-17T10:38:35.621Z,40.60
2019-03-17T10:41:07.963Z,41.50
2019-03-17T10:43:37.199Z,40.70
2019-03-17T10:46:08.307Z,39.70
2019-03-17T10:48:38.246Z,37.60
2019-03-17T10:51:08.135Z,40.20
2019-03-17T10:53:38.040Z,39.00
2019-03-17T10:56:09.047Z,39.90
2019-03-17T10:58:38.919Z,38.40
2019-03-17T11:01:09.810Z,39.80
2019-03-17T11:03:41.930Z,38.50
2019-03-17T11:06:11.859Z,39.80
2019-03-17T11:08:43.734Z,38.20
2019-03-17T11:11:14.843Z,37.60
2019-03-17T11:13:45.664Z,37.90
2019-03-17T11:16:16.747Z,38.30
2019-03-17T11:18:46.546Z,38.70
2019-03-17T11:21:17.487Z,38.70
2019-03-17T11:23:47.249Z,36.80
2019-03-17T11:26:20.719Z,36.40
2019-03-17T11:28:51.640Z,36.90
2019-03-17T11:31:22.626Z,37.50
2019-03-17T11:33:53.511Z,38.00
2019-03-17T11:36:23.366Z,38.10
2019-03-17T11:38:54.213Z,39.20
2019-03-17T11:41:25.215Z,38.30
2019-03-17T11:44:14.376Z,35.20
2019-03-17T11:46:47.674Z,36.10
2019-03-17T11:49:17.454Z,37.00
2019-03-17T11:51:48.444Z,36.20
2019-03-17T11:54:18.938Z,37.10
2019-03-17T11:56:51.942Z,35.60
2019-03-17T11:59:22.698Z,35.70
2019-03-17T12:01:55.108Z,35.90
2019-03-17T12:04:26.206Z,35.20
2019-03-17T12:06:56.133Z,35.20
2019-03-17T12:09:29.429Z,36.50
2019-03-17T12:11:57.479Z,37.80
2019-03-17T12:14:28.330Z,36.90
2019-03-17T12:16:58.998Z,36.70
2019-03-17T12:19:32.613Z,37.80
2019-03-17T12:22:09.037Z,36.60
2019-03-17T12:24:33.686Z,35.90
2019-03-17T12:27:04.628Z,34.50
2019-03-17T12:29:34.617Z,35.40
2019-03-17T12:32:06.961Z,35.80
2019-03-17T12:34:38.245Z,35.20
2019-03-17T12:37:07.577Z,35.50
2019-03-17T12:39:37.413Z,34.40
2019-03-17T12:42:09.630Z,34.90
2019-03-17T12:44:41.715Z,35.00
2019-03-17T12:47:12.504Z,35.40
2019-03-17T12:49:44.628Z,35.10
2019-03-17T12:52:15.496Z,36.10
2019-03-17T12:54:46.340Z,35.80
2019-03-17T12:57:17.455Z,35.50
2019-03-17T12:59:47.871Z,34.60
2019-03-17T13:02:22.238Z,35.00
2019-03-17T13:04:51.566Z,37.10
2019-03-17T13:07:21.388Z,35.20
2019-03-17T13:09:51.224Z,35.00
2019-03-17T13:12:22.348Z,35.50
2019-03-17T13:14:53.408Z,35.90
2019-03-17T13:17:24.281Z,35.40
2019-03-17T13:19:53.562Z,34.30
2019-03-17T13:22:23.387Z,34.00
2019-03-17T13:24:53.212Z,34.00
2019-03-17T13:27:24.221Z,34.20
2019-03-17T13:29:56.435Z,33.90
2019-03-17T13:32:27.487Z,34.20
2019-03-17T13:34:59.715Z,33.90
2019-03-17T13:37:32.193Z,35.50
2019-03-17T13:40:01.966Z,34.80
2019-03-17T13:42:34.009Z,35.80
2019-03-17T13:45:07.091Z,35.00
2019-03-17T13:47:40.440Z,35.30
2019-03-17T13:50:24.124Z,35.10
2019-03-17T13:52:57.112Z,34.80
2019-03-17T13:55:27.048Z,34.90
2019-03-17T13:58:01.983Z,35.10
2019-03-17T14:00:31.691Z,35.30
2019-03-17T14:03:02.719Z,34.80
2019-03-17T14:05:32.639Z,33.50
2019-03-17T14:08:05.056Z,35.10
2019-03-17T14:10:41.181Z,35.20
2019-03-17T14:13:08.782Z,36.50
2019-03-17T14:15:39.898Z,37.60
2019-03-17T14:18:09.852Z,37.20
2019-03-17T14:20:41.080Z,38.30
2019-03-17T14:23:12.031Z,38.80
2019-03-17T14:25:44.324Z,38.50
2019-03-17T14:28:16.662Z,38.10
2019-03-17T14:30:47.759Z,38.10
2019-03-17T14:33:18.674Z,37.40
2019-03-17T14:35:49.591Z,37.30
2019-03-17T14:38:20.487Z,37.90
2019-03-17T14:40:53.854Z,38.70
2019-03-17T14:43:25.518Z,39.10
2019-03-17T14:45:56.414Z,39.40
2019-03-17T14:48:28.644Z,40.10
2019-03-17T14:50:58.468Z,40.90
2019-03-17T14:53:27.770Z,40.50
2019-03-17T14:55:58.825Z,40.80
2019-03-17T14:58:31.021Z,41.00
2019-03-17T15:01:00.967Z,41.10
2019-03-17T15:03:32.449Z,40.80
2019-03-17T15:06:03.644Z,41.00
2019-03-17T15:08:34.904Z,40.80
2019-03-17T15:11:06.043Z,41.30
2019-03-17T15:13:37.662Z,41.30
2019-03-17T15:16:08.866Z,41.50
2019-03-17T15:18:41.179Z,42.40
2019-03-17T15:21:11.026Z,41.30
2019-03-17T15:23:43.285Z,42.30
2019-03-17T15:26:13.115Z,43.00
2019-03-17T15:28:44.448Z,43.50
2019-03-17T15:31:14.305Z,43.40
2019-03-17T15:33:45.133Z,45.30
2019-03-17T15:36:15.013Z,46.40
2019-03-17T15:38:44.843Z,47.20
2019-03-17T15:41:19.436Z,47.50
2019-03-17T15:43:50.220Z,48.40
2019-03-17T15:46:22.943Z,48.20
2019-03-17T15:48:55.093Z,48.60
2019-03-17T15:51:25.012Z,48.90
2019-03-17T15:53:57.484Z,49.80
2019-03-17T15:56:29.493Z,49.70
2019-03-17T15:59:00.367Z,50.40
2019-03-17T16:01:31.337Z,50.60
2019-03-17T16:04:02.417Z,51.00
2019-03-17T16:06:33.271Z,51.40
2019-03-17T16:09:04.338Z,51.50
2019-03-17T16:11:35.362Z,51.50
2019-03-17T16:14:06.545Z,52.00
2019-03-17T16:16:36.419Z,51.80
2019-03-17T16:19:07.362Z,52.10
2019-03-17T16:21:38.227Z,52.50
2019-03-17T16:24:12.118Z,52.60
2019-03-17T16:26:42.014Z,52.30
2019-03-17T16:29:11.969Z,52.50
2019-03-17T16:31:44.086Z,52.00
2019-03-17T16:34:14.007Z,52.20
2019-03-17T16:36:45.416Z,52.40
2019-03-17T16:39:17.831Z,52.50
2019-03-17T16:41:47.640Z,52.60
2019-03-17T16:44:19.119Z,53.10
2019-03-17T16:46:50.737Z,52.90
2019-03-17T16:49:22.475Z,52.90
2019-03-17T16:51:54.740Z,53.10
2019-03-17T16:54:27.319Z,53.40
2019-03-17T16:56:58.301Z,53.30
2019-03-17T16:59:29.204Z,53.50
2019-03-17T17:02:00.132Z,53.30
2019-03-17T17:04:30.919Z,53.50
2019-03-17T17:07:01.956Z,54.10
2019-03-17T17:09:33.263Z,54.10
2019-03-17T17:12:04.183Z,54.30
2019-03-17T17:14:35.343Z,54.40
2019-03-17T17:17:07.212Z,54.20
2019-03-17T17:19:38.044Z,54.10
2019-03-17T17:22:08.892Z,54.30
2019-03-17T17:24:39.814Z,54.40
2019-03-17T17:27:09.753Z,54.10
2019-03-17T17:29:39.588Z,54.00
2019-03-17T17:32:10.845Z,54.30
2019-03-17T17:34:40.708Z,54.40
2019-03-17T17:37:11.710Z,54.60
2019-03-17T17:39:41.552Z,54.50
2019-03-17T17:42:12.771Z,55.20
2019-03-17T17:44:42.818Z,55.20
2019-03-17T17:47:15.216Z,55.60
2019-03-17T17:49:46.298Z,55.50
2019-03-17T17:52:17.463Z,55.60
2019-03-17T17:54:47.290Z,55.60
2019-03-17T17:57:18.129Z,55.50
2019-03-17T17:59:47.457Z,55.80
2019-03-17T18:02:17.337Z,56.10
2019-03-17T18:04:47.259Z,56.10
2019-03-17T18:09:54.764Z,56.40
2019-03-17T18:12:25.474Z,56.50
2019-03-17T18:14:56.427Z,57.30
2019-03-17T18:17:29.531Z,57.30
2019-03-17T18:20:02.052Z,57.30
2019-03-17T18:22:32.993Z,57.50
2019-03-17T18:25:03.987Z,57.40
2019-03-17T18:27:34.945Z,57.60
2019-03-17T18:30:07.096Z,57.60
2019-03-17T18:32:38.542Z,57.80
2019-03-17T18:35:11.196Z,57.60
2019-03-17T18:37:41.961Z,57.20
2019-03-17T18:40:22.777Z,57.10
2019-03-17T18:42:53.633Z,56.70
2019-03-17T18:45:28.995Z,56.70
2019-03-17T18:47:58.879Z,56.90
2019-03-17T18:50:28.772Z,57.10
2019-03-17T18:52:58.819Z,57.30
2019-03-17T18:55:28.669Z,57.60
2019-03-17T18:57:59.683Z,58.10
2019-03-17T19:00:31.483Z,58.50
2019-03-17T19:03:02.558Z,58.90
2019-03-17T19:05:32.418Z,59.20
2019-03-17T19:08:03.793Z,59.60
2019-03-17T19:10:34.647Z,60.00
2019-03-17T19:13:06.820Z,60.60
2019-03-17T19:15:38.286Z,61.20
2019-03-17T19:18:10.649Z,62.00
2019-03-17T19:20:40.411Z,62.40
2019-03-17T19:23:11.250Z,62.80
2019-03-17T19:25:43.695Z,63.00
2019-03-17T19:28:13.566Z,63.40
2019-03-17T19:30:43.508Z,63.50
2019-03-17T19:33:14.650Z,63.60
2019-03-17T19:35:45.683Z,64.10
2019-03-17T19:38:17.783Z,64.20
2019-03-17T19:40:49.115Z,64.70
2019-03-17T19:43:20.133Z,64.90
2019-03-17T19:45:50.024Z,66.40
2019-03-17T19:48:23.166Z,68.10
2019-03-17T19:50:52.989Z,69.90
2019-03-17T19:53:22.805Z,71.50
2019-03-17T19:55:54.771Z,72.60
2019-03-17T19:58:25.655Z,73.10
2019-03-17T20:00:56.641Z,73.70
2019-03-17T20:03:28.920Z,74.00
2019-03-17T20:06:02.542Z,74.60
2019-03-17T20:08:32.396Z,74.70
2019-03-17T20:11:04.558Z,75.00
2019-03-17T20:13:35.617Z,75.30
2019-03-17T20:16:08.576Z,75.80
2019-03-17T20:18:41.261Z,75.90
2019-03-17T20:21:10.960Z,75.80
2019-03-17T20:23:43.216Z,76.00
2019-03-17T20:26:14.162Z,75.70
2019-03-17T20:28:46.677Z,75.30
2019-03-17T20:31:18.015Z,75.20
2019-03-17T20:33:49.355Z,75.50
2019-03-17T20:36:20.319Z,75.70
2019-03-17T20:38:51.190Z,75.90
2019-03-17T20:41:20.997Z,76.20
2019-03-17T20:43:50.758Z,76.50
2019-03-17T20:46:21.480Z,76.30
2019-03-17T20:48:52.800Z,76.40
2019-03-17T20:51:22.688Z,76.50
2019-03-17T20:53:53.716Z,76.60
2019-03-17T20:56:24.479Z,76.60
2019-03-17T20:58:54.575Z,76.10
2019-03-17T21:01:25.318Z,75.80
2019-03-17T21:03:56.154Z,75.50
2019-03-17T21:06:25.918Z,75.50
2019-03-17T21:08:55.904Z,75.30
2019-03-17T21:11:26.839Z,75.30
2019-03-17T21:13:57.643Z,75.10
2019-03-17T21:16:29.191Z,75.60
2019-03-17T21:18:58.905Z,75.10
2019-03-17T21:21:31.999Z,75.60
2019-03-17T21:24:02.866Z,75.40
2019-03-17T21:26:34.186Z,75.50
2019-03-17T21:29:04.051Z,75.60
2019-03-17T21:31:35.410Z,76.00
2019-03-17T21:34:07.037Z,75.50
2019-03-17T21:36:37.917Z,75.50
2019-03-17T21:39:09.689Z,75.70
2019-03-17T21:41:42.704Z,76.00
2019-03-17T21:44:15.700Z,75.80
2019-03-17T21:46:46.881Z,75.80
2019-03-17T21:49:19.247Z,75.90
2019-03-17T21:51:49.221Z,75.80
2019-03-17T21:54:21.519Z,75.90
2019-03-17T21:56:52.562Z,76.10
2019-03-17T21:59:25.152Z,76.30
2019-03-17T22:01:56.056Z,76.20
2019-03-17T22:04:28.170Z,76.10
2019-03-17T22:06:59.031Z,76.10
2019-03-17T22:09:29.804Z,76.10
2019-03-17T22:12:03.237Z,76.30
2019-03-17T22:14:33.203Z,76.40
2019-03-17T22:17:04.139Z,76.00
2019-03-17T22:19:36.450Z,76.30
2019-03-17T22:22:08.930Z,76.00
2019-03-17T22:24:37.807Z,75.50
2019-03-17T22:27:10.835Z,75.80
2019-03-17T22:29:41.799Z,75.80
2019-03-17T22:32:11.053Z,75.80
2019-03-17T22:34:41.788Z,76.40
2019-03-17T22:37:11.835Z,76.10
2019-03-17T22:39:42.612Z,76.00
2019-03-17T22:42:13.685Z,75.90
2019-03-17T22:44:45.025Z,75.90
2019-03-17T22:47:14.967Z,76.30
2019-03-17T22:49:45.935Z,76.00
2019-03-17T22:52:18.388Z,76.10
2019-03-17T22:54:51.377Z,76.10
2019-03-17T22:57:21.488Z,76.30
2019-03-17T22:59:52.462Z,76.30
2019-03-17T23:02:23.462Z,76.20
2019-03-17T23:04:53.378Z,76.20
2019-03-17T23:07:24.215Z,76.50
2019-03-17T23:09:55.297Z,76.20
2019-03-17T23:12:26.333Z,76.60
2019-03-17T23:14:59.229Z,76.60
2019-03-17T23:17:49.647Z,76.80
2019-03-17T23:20:20.494Z,76.60
2019-03-17T23:22:51.496Z,77.10
2019-03-17T23:25:23.836Z,76.90
2019-03-17T23:27:58.491Z,76.80
2019-03-17T23:30:31.186Z,77.20
2019-03-17T23:33:02.025Z,76.90
2019-03-17T23:35:32.079Z,76.90
2019-03-17T23:38:03.808Z,77.10
2019-03-17T23:40:34.770Z,77.30
2019-03-17T23:43:07.797Z,77.20
2019-03-17T23:45:40.197Z,77.80
2019-03-17T23:48:14.275Z,78.10
2019-03-17T23:50:44.119Z,78.60
2019-03-17T23:53:13.909Z,79.40
2019-03-17T23:55:44.851Z,80.20
2019-03-17T23:58:17.317Z,80.90
